createdAt,value
2019-06-25T00:00:52.083Z,3.73
2019-06-25T00:03:20.582Z,3.60
2019-06-25T00:05:49.062Z,3.47
2019-06-25T00:08:17.561Z,3.40
2019-06-25T00:10:46.068Z,3.50
2019-06-25T00:13:14.548Z,3.73
2019-06-25T00:15:43.071Z,3.37
2019-06-25T00:18:13.271Z,3.40
2019-06-25T00:20:41.746Z,3.30
2019-06-25T00:23:10.221Z,4.30
2019-06-25T00:25:38.747Z,3.30
2019-06-25T00:28:07.309Z,3.80
2019-06-25T00:30:35.807Z,3.63
2019-06-25T00:33:04.391Z,3.43
2019-06-25T00:35:32.872Z,4.00
2019-06-25T00:38:01.354Z,4.97
2019-06-25T00:40:29.901Z,3.00
2019-06-25T00:42:58.376Z,3.90
2019-06-25T00:45:26.864Z,3.70
2019-06-25T00:47:55.383Z,3.40
2019-06-25T00:50:23.921Z,4.07
2019-06-25T00:52:52.412Z,3.83
2019-06-25T00:55:20.948Z,3.20
2019-06-25T00:57:50.853Z,4.37
2019-06-25T01:00:20.379Z,3.50
2019-06-25T01:02:52.076Z,4.40
2019-06-25T01:05:20.553Z,3.53
2019-06-25T01:07:49.040Z,4.20
2019-06-25T01:10:17.632Z,3.57
2019-06-25T01:12:46.107Z,3.23
2019-06-25T01:15:15.855Z,3.80
2019-06-25T01:17:44.404Z,3.47
2019-06-25T01:20:12.948Z,3.90
2019-06-25T01:22:41.494Z,4.30
2019-06-25T01:25:10.001Z,3.47
2019-06-25T01:27:38.481Z,4.07
2019-06-25T01:30:10.374Z,3.67
2019-06-25T01:32:38.915Z,4.40
2019-06-25T01:35:07.836Z,3.93
2019-06-25T01:37:36.379Z,3.77
2019-06-25T01:40:06.534Z,4.00
2019-06-25T01:42:35.090Z,4.10
2019-06-25T01:45:04.758Z,3.90
2019-06-25T01:47:33.234Z,4.50
2019-06-25T01:50:01.699Z,4.63
2019-06-25T01:52:30.182Z,4.67
2019-06-25T01:54:58.703Z,3.43
2019-06-25T01:57:27.261Z,3.53
2019-06-25T01:59:56.858Z,4.93
2019-06-25T02:02:25.388Z,3.90
2019-06-25T02:04:54.040Z,4.60
2019-06-25T02:07:22.529Z,3.83
2019-06-25T02:09:51.043Z,4.10
2019-06-25T02:12:19.817Z,3.93
2019-06-25T02:14:48.312Z,4.77
2019-06-25T02:17:16.895Z,4.50
2019-06-25T02:19:45.381Z,3.73
2019-06-25T02:22:13.890Z,4.70
2019-06-25T02:24:42.408Z,4.30
2019-06-25T02:27:10.881Z,3.43
2019-06-25T02:29:39.362Z,4.57
2019-06-25T02:32:07.933Z,4.13
2019-06-25T02:34:39.086Z,4.40
2019-06-25T02:37:06.626Z,4.40
2019-06-25T02:39:35.161Z,4.10
2019-06-25T02:42:03.650Z,3.70
2019-06-25T02:44:32.127Z,3.93
2019-06-25T02:47:00.633Z,4.20
2019-06-25T02:49:29.125Z,3.90
2019-06-25T02:51:57.605Z,3.97
2019-06-25T02:54:26.171Z,4.40
2019-06-25T02:56:54.644Z,4.00
2019-06-25T02:59:23.134Z,4.47
2019-06-25T03:01:52.030Z,4.10
2019-06-25T03:04:20.513Z,4.80
2019-06-25T03:06:48.985Z,4.50
2019-06-25T03:09:17.503Z,3.80
2019-06-25T03:11:45.969Z,4.10
2019-06-25T03:14:14.470Z,3.90
2019-06-25T03:16:43.013Z,5.30
2019-06-25T03:19:11.487Z,4.30
2019-06-25T03:21:40.461Z,4.50
2019-06-25T03:24:09.036Z,4.53
2019-06-25T03:26:37.513Z,4.07
2019-06-25T03:29:05.995Z,4.37
2019-06-25T03:32:02.082Z,4.17
2019-06-25T03:34:04.823Z,4.70
2019-06-25T03:36:33.329Z,4.53
2019-06-25T03:39:01.835Z,4.50
2019-06-25T03:41:30.317Z,4.40
2019-06-25T03:43:58.797Z,4.37
2019-06-25T03:46:27.319Z,4.23
2019-06-25T03:48:55.862Z,4.40
2019-06-25T03:51:24.387Z,4.07
2019-06-25T03:53:52.905Z,4.47
2019-06-25T03:56:21.382Z,4.80
2019-06-25T03:58:49.928Z,4.60
2019-06-25T04:01:18.455Z,5.40
2019-06-25T04:03:47.326Z,4.20
2019-06-25T04:06:15.803Z,4.27
2019-06-25T04:08:44.374Z,4.17
2019-06-25T04:11:12.901Z,4.80
2019-06-25T04:13:41.365Z,4.07
2019-06-25T04:16:09.924Z,3.80
2019-06-25T04:18:38.413Z,4.10
2019-06-25T04:21:06.932Z,3.90
2019-06-25T04:23:36.780Z,3.90
2019-06-25T04:26:05.258Z,4.77
2019-06-25T04:28:33.748Z,3.40
2019-06-25T04:31:02.412Z,4.23
2019-06-25T04:33:30.905Z,4.73
2019-06-25T04:35:59.446Z,4.80
2019-06-25T04:38:27.920Z,4.17
2019-06-25T04:40:56.387Z,4.13
2019-06-25T04:43:24.861Z,4.77
2019-06-25T04:45:54.116Z,4.47
2019-06-25T04:48:22.611Z,5.57
2019-06-25T04:50:51.091Z,4.93
2019-06-25T04:53:19.629Z,4.43
2019-06-25T04:55:48.130Z,4.17
2019-06-25T04:58:16.624Z,4.33
2019-06-25T05:00:45.156Z,5.30
2019-06-25T05:03:13.767Z,4.33
2019-06-25T05:05:42.415Z,3.90
2019-06-25T05:08:11.012Z,4.63
2019-06-25T05:10:39.562Z,4.60
2019-06-25T05:13:08.061Z,4.40
2019-06-25T05:15:36.741Z,4.90
2019-06-25T05:18:05.448Z,4.00
2019-06-25T05:20:33.944Z,4.47
2019-06-25T05:23:02.540Z,4.70
2019-06-25T05:25:31.194Z,4.10
2019-06-25T05:27:59.669Z,4.63
2019-06-25T05:30:29.458Z,4.57
2019-06-25T05:33:05.420Z,6.17
2019-06-25T05:35:28.976Z,4.87
2019-06-25T05:37:57.482Z,4.43
2019-06-25T05:40:25.960Z,5.60
2019-06-25T05:42:54.461Z,5.07
2019-06-25T05:45:23.535Z,5.00
2019-06-25T05:47:52.022Z,4.43
2019-06-25T05:50:21.176Z,4.50
2019-06-25T05:52:49.706Z,5.23
2019-06-25T05:55:18.173Z,4.87
2019-06-25T05:57:46.650Z,4.80
2019-06-25T06:00:16.209Z,4.10
2019-06-25T06:02:44.760Z,4.47
2019-06-25T06:05:14.842Z,4.83
2019-06-25T06:07:44.774Z,4.80
2019-06-25T06:10:16.484Z,4.57
2019-06-25T06:12:44.951Z,4.70
2019-06-25T06:15:13.623Z,4.40
2019-06-25T06:17:54.334Z,4.47
2019-06-25T06:20:22.932Z,4.53
2019-06-25T06:22:51.780Z,4.30
2019-06-25T06:25:20.322Z,4.20
2019-06-25T06:27:48.876Z,4.30
2019-06-25T06:30:17.732Z,4.97
2019-06-25T06:32:46.212Z,4.60
2019-06-25T06:35:14.782Z,4.70
2019-06-25T06:37:43.263Z,4.03
2019-06-25T06:40:11.915Z,4.20
2019-06-25T06:42:40.449Z,4.43
2019-06-25T06:45:09.217Z,4.33
2019-06-25T06:47:37.794Z,4.10
2019-06-25T06:50:07.267Z,4.37
2019-06-25T06:52:35.784Z,4.33
2019-06-25T06:55:07.258Z,4.93
2019-06-25T06:57:35.883Z,4.40
2019-06-25T07:00:06.516Z,4.90
2019-06-25T07:02:35.086Z,4.13
2019-06-25T07:05:03.793Z,4.80
2019-06-25T07:07:32.369Z,4.60
2019-06-25T07:10:02.878Z,4.50
2019-06-25T07:12:31.509Z,4.83
2019-06-25T07:14:59.958Z,3.60
2019-06-25T07:17:28.449Z,4.60
2019-06-25T07:19:56.982Z,4.87
2019-06-25T07:22:25.501Z,4.63
2019-06-25T07:24:54.011Z,4.27
2019-06-25T07:27:22.615Z,5.20
2019-06-25T07:29:51.081Z,4.60
2019-06-25T07:32:19.574Z,4.47
2019-06-25T07:34:48.165Z,4.40
2019-06-25T07:37:16.691Z,3.93
2019-06-25T07:39:45.252Z,4.30
2019-06-25T07:42:13.756Z,4.07
2019-06-25T07:44:42.311Z,3.87
2019-06-25T07:47:10.801Z,3.40
2019-06-25T07:49:39.316Z,3.93
2019-06-25T07:52:07.804Z,4.03
2019-06-25T07:54:36.321Z,3.40
2019-06-25T07:57:04.857Z,4.67
2019-06-25T07:59:33.330Z,4.40
2019-06-25T08:02:01.878Z,4.43
2019-06-25T08:04:30.402Z,4.23
2019-06-25T08:06:58.948Z,4.50
2019-06-25T08:09:27.565Z,4.30
2019-06-25T08:11:57.203Z,3.70
2019-06-25T08:14:25.751Z,4.20
2019-06-25T08:16:54.245Z,4.00
2019-06-25T08:19:22.850Z,5.00
2019-06-25T08:21:51.399Z,4.60
2019-06-25T08:24:19.888Z,4.20
2019-06-25T08:26:48.413Z,4.50
2019-06-25T08:29:16.924Z,3.80
2019-06-25T08:31:45.390Z,4.57
2019-06-25T08:34:13.916Z,4.40
2019-06-25T08:36:42.522Z,4.33
2019-06-25T08:39:11.021Z,4.60
2019-06-25T08:41:39.552Z,4.80
2019-06-25T08:44:08.017Z,4.50
2019-06-25T08:46:37.439Z,4.67
2019-06-25T08:49:06.051Z,4.57
2019-06-25T08:51:34.539Z,4.70
2019-06-25T08:54:03.349Z,4.60
2019-06-25T08:56:31.920Z,4.97
2019-06-25T08:59:00.412Z,4.23
2019-06-25T09:01:29.719Z,4.10
2019-06-25T09:03:58.227Z,4.10
2019-06-25T09:06:26.989Z,4.43
2019-06-25T09:08:55.465Z,4.27
2019-06-25T09:11:24.027Z,4.27
2019-06-25T09:13:52.956Z,4.10
2019-06-25T09:16:21.421Z,3.90
2019-06-25T09:18:49.961Z,3.70
2019-06-25T09:21:18.449Z,4.13
2019-06-25T09:23:46.991Z,3.80
2019-06-25T09:26:15.504Z,4.03
2019-06-25T09:28:44.033Z,3.80
2019-06-25T09:31:12.553Z,4.93
2019-06-25T09:33:41.059Z,4.70
2019-06-25T09:36:10.690Z,4.10
2019-06-25T09:38:39.178Z,3.60
2019-06-25T09:41:07.133Z,4.37
2019-06-25T09:43:34.615Z,4.07
2019-06-25T09:46:03.557Z,4.60
2019-06-25T09:48:32.829Z,3.97
2019-06-25T09:51:01.483Z,4.30
2019-06-25T09:53:30.006Z,3.80
2019-06-25T09:55:58.531Z,3.67
2019-06-25T09:58:29.390Z,4.30
2019-06-25T10:00:59.380Z,3.27
2019-06-25T10:03:28.747Z,3.40
2019-06-25T10:05:57.313Z,4.10
2019-06-25T10:08:25.807Z,4.33
2019-06-25T10:10:54.337Z,3.50
2019-06-25T10:13:22.822Z,3.30
2019-06-25T10:15:52.828Z,4.67
2019-06-25T10:18:21.309Z,3.90
2019-06-25T10:20:50.159Z,3.43
2019-06-25T10:23:18.648Z,3.80
2019-06-25T10:25:47.277Z,3.17
2019-06-25T10:28:28.711Z,3.03
2019-06-25T10:30:56.368Z,3.57
2019-06-25T10:33:25.148Z,3.70
2019-06-25T10:35:53.793Z,3.13
2019-06-25T10:38:22.955Z,3.27
2019-06-25T10:40:51.724Z,3.03
2019-06-25T10:43:20.318Z,3.30
2019-06-25T10:45:48.983Z,3.50
2019-06-25T10:48:21.953Z,3.23
2019-06-25T10:50:47.870Z,2.87
2019-06-25T10:53:16.562Z,3.07
2019-06-25T10:55:45.112Z,3.80
2019-06-25T10:58:13.666Z,3.17
2019-06-25T11:00:50.683Z,2.73
2019-06-25T11:03:19.270Z,3.27
2019-06-25T11:06:03.392Z,3.50
2019-06-25T11:08:18.366Z,2.80
2019-06-25T11:10:47.070Z,3.10
2019-06-25T11:13:15.633Z,2.50
2019-06-25T11:15:44.255Z,3.50
2019-06-25T11:18:13.911Z,3.20
2019-06-25T11:20:42.481Z,2.50
2019-06-25T11:23:11.060Z,2.60
2019-06-25T11:25:39.616Z,3.00
2019-06-25T11:28:08.221Z,2.70
2019-06-25T11:30:36.821Z,3.23
2019-06-25T11:33:05.443Z,2.80
2019-06-25T11:35:33.959Z,3.40
2019-06-25T11:38:02.570Z,3.10
2019-06-25T11:40:36.069Z,3.87
2019-06-25T11:43:05.799Z,3.00
2019-06-25T11:45:34.473Z,3.63
2019-06-25T11:48:03.673Z,2.57
2019-06-25T11:50:32.313Z,2.97
2019-06-25T11:53:01.139Z,2.77
2019-06-25T11:55:29.718Z,3.77
2019-06-25T11:57:58.269Z,2.67
2019-06-25T12:00:27.429Z,2.40
2019-06-25T12:02:55.980Z,2.50
2019-06-25T12:05:24.542Z,2.90
2019-06-25T12:07:54.520Z,2.53
2019-06-25T12:10:23.450Z,2.63
2019-06-25T12:12:52.010Z,3.07
2019-06-25T12:15:20.700Z,2.57
2019-06-25T12:17:49.435Z,3.10
2019-06-25T12:20:18.579Z,2.60
2019-06-25T12:22:47.191Z,2.90
2019-06-25T12:25:15.820Z,3.10
2019-06-25T12:27:44.390Z,3.00
2019-06-25T12:30:13.269Z,2.27
2019-06-25T12:32:41.827Z,2.67
2019-06-25T12:35:10.671Z,3.13
2019-06-25T12:37:39.267Z,3.20
2019-06-25T12:40:07.996Z,2.93
2019-06-25T12:42:37.793Z,2.43
2019-06-25T12:45:07.232Z,2.70
2019-06-25T12:47:35.794Z,3.20
2019-06-25T12:50:05.707Z,3.20
2019-06-25T12:52:34.317Z,3.23
2019-06-25T12:55:02.887Z,2.60
2019-06-25T12:57:31.497Z,2.80
2019-06-25T13:00:00.124Z,2.40
2019-06-25T13:02:28.681Z,2.07
2019-06-25T13:04:58.956Z,2.63
2019-06-25T13:07:27.564Z,2.70
2019-06-25T13:09:56.198Z,2.60
2019-06-25T13:12:24.783Z,3.10
2019-06-25T13:14:53.371Z,2.97
2019-06-25T13:17:21.932Z,2.57
2019-06-25T13:19:50.513Z,2.80
2019-06-25T13:22:19.464Z,2.67
2019-06-25T13:24:50.963Z,2.30
2019-06-25T13:27:18.314Z,2.70
2019-06-25T13:29:46.944Z,3.03
2019-06-25T13:32:15.498Z,2.40
2019-06-25T13:34:44.052Z,2.77
2019-06-25T13:37:12.660Z,2.90
2019-06-25T13:39:41.210Z,3.10
2019-06-25T13:42:09.771Z,2.80
2019-06-25T13:44:39.827Z,3.40
2019-06-25T13:47:08.752Z,2.87
2019-06-25T13:49:37.326Z,3.00
2019-06-25T13:52:05.923Z,2.60
2019-06-25T13:54:34.491Z,2.30
2019-06-25T13:57:03.070Z,3.00
2019-06-25T13:59:31.658Z,2.93
2019-06-25T14:02:00.258Z,2.80
2019-06-25T14:04:28.779Z,2.70
2019-06-25T14:06:57.382Z,2.33
2019-06-25T14:09:25.941Z,2.50
2019-06-25T14:11:54.503Z,2.40
2019-06-25T14:14:23.112Z,3.00
2019-06-25T14:16:51.710Z,2.70
2019-06-25T14:19:20.281Z,3.00
2019-06-25T14:21:48.899Z,2.60
2019-06-25T14:24:17.910Z,2.73
2019-06-25T14:26:46.486Z,2.20
2019-06-25T14:29:15.871Z,2.63
2019-06-25T14:31:44.503Z,2.87
2019-06-25T14:34:13.275Z,2.10
2019-06-25T14:36:41.964Z,2.90
2019-06-25T14:39:10.535Z,2.83
2019-06-25T14:41:39.164Z,2.17
2019-06-25T14:44:07.853Z,2.40
2019-06-25T14:46:36.484Z,2.20
2019-06-25T14:49:05.180Z,2.20
2019-06-25T14:51:33.793Z,2.10
2019-06-25T14:54:02.349Z,2.90
2019-06-25T14:56:30.959Z,2.33
2019-06-25T14:58:59.589Z,2.70
2019-06-25T15:01:28.315Z,2.80
2019-06-25T15:03:56.877Z,2.50
2019-06-25T15:06:25.528Z,2.47
2019-06-25T15:08:54.247Z,2.67
2019-06-25T15:11:22.807Z,2.33
2019-06-25T15:13:51.416Z,2.50
2019-06-25T15:16:19.991Z,3.00
2019-06-25T15:18:48.548Z,3.00
2019-06-25T15:21:17.168Z,3.10
2019-06-25T15:23:45.747Z,2.93
2019-06-25T15:26:14.548Z,2.57
2019-06-25T15:28:43.152Z,3.13
2019-06-25T15:31:11.711Z,3.00
2019-06-25T15:33:40.269Z,2.73
2019-06-25T15:36:08.879Z,2.90
2019-06-25T15:38:46.855Z,2.50
2019-06-25T15:41:07.823Z,3.53
2019-06-25T15:43:38.457Z,2.70
2019-06-25T15:46:07.113Z,2.60
2019-06-25T15:48:35.680Z,2.50
2019-06-25T15:51:04.340Z,2.87
2019-06-25T15:53:32.904Z,3.03
2019-06-25T15:56:01.499Z,2.80
2019-06-25T15:58:30.192Z,3.40
2019-06-25T16:00:58.756Z,2.90
2019-06-25T16:03:27.330Z,3.57
2019-06-25T16:05:55.918Z,3.13
2019-06-25T16:08:24.508Z,3.50
2019-06-25T16:10:53.065Z,3.80
2019-06-25T16:13:21.689Z,3.40
2019-06-25T16:15:50.236Z,3.83
2019-06-25T16:18:18.809Z,4.53
2019-06-25T16:20:47.423Z,3.63
2019-06-25T16:23:16.058Z,4.20
2019-06-25T16:25:44.600Z,3.30
2019-06-25T16:28:14.229Z,3.90
2019-06-25T16:30:42.791Z,3.57
2019-06-25T16:33:11.349Z,3.53
2019-06-25T16:35:40.063Z,4.10
2019-06-25T16:38:08.653Z,3.03
2019-06-25T16:40:37.225Z,3.57
2019-06-25T16:43:05.869Z,3.27
2019-06-25T16:45:34.430Z,3.23
2019-06-25T16:48:02.998Z,3.40
2019-06-25T16:50:31.581Z,3.50
2019-06-25T16:53:01.095Z,3.47
2019-06-25T16:55:29.896Z,3.63
2019-06-25T16:57:58.504Z,3.03
2019-06-25T17:00:27.078Z,3.63
2019-06-25T17:02:55.639Z,3.70
2019-06-25T17:05:31.693Z,3.53
2019-06-25T17:07:54.526Z,3.00
2019-06-25T17:10:23.089Z,3.33
2019-06-25T17:12:51.729Z,3.30
2019-06-25T17:15:20.296Z,3.45
2019-06-25T17:17:48.907Z,3.30
2019-06-25T17:20:17.559Z,3.67
2019-06-25T17:22:46.138Z,3.15
2019-06-25T17:25:14.782Z,3.75
2019-06-25T17:27:49.970Z,3.98
2019-06-25T17:30:15.234Z,3.47
2019-06-25T17:32:43.805Z,3.33
2019-06-25T17:35:12.524Z,3.60
2019-06-25T17:37:41.093Z,3.80
2019-06-25T17:40:09.892Z,3.27
2019-06-25T17:42:38.489Z,3.35
2019-06-25T17:45:07.446Z,4.03
2019-06-25T17:47:36.136Z,3.67
2019-06-25T17:50:06.231Z,3.50
2019-06-25T17:52:34.790Z,2.80
2019-06-25T17:55:03.819Z,3.60
2019-06-25T17:57:32.497Z,3.17
2019-06-25T18:00:01.083Z,3.90
2019-06-25T18:02:29.606Z,3.60
2019-06-25T18:04:58.282Z,3.57
2019-06-25T18:07:26.934Z,3.40
2019-06-25T18:10:07.166Z,4.00
2019-06-25T18:12:26.012Z,4.17
2019-06-25T18:14:54.578Z,3.50
2019-06-25T18:17:23.206Z,4.10
2019-06-25T18:19:51.806Z,4.03
2019-06-25T18:22:20.369Z,4.60
2019-06-25T18:24:48.927Z,4.47
2019-06-25T18:27:17.465Z,4.80
2019-06-25T18:29:45.940Z,3.90
2019-06-25T18:32:15.478Z,4.77
2019-06-25T18:34:44.014Z,4.33
2019-06-25T18:37:12.490Z,4.30
2019-06-25T18:39:40.995Z,4.20
2019-06-25T18:42:09.649Z,4.87
2019-06-25T18:44:38.129Z,5.07
2019-06-25T18:47:06.602Z,4.53
2019-06-25T18:49:35.123Z,4.87
2019-06-25T18:52:03.610Z,5.20
2019-06-25T18:54:32.083Z,5.13
2019-06-25T18:57:00.601Z,4.73
2019-06-25T18:59:29.165Z,5.23
2019-06-25T19:02:00.968Z,5.47
2019-06-25T19:04:27.940Z,4.87
2019-06-25T19:06:56.424Z,5.67
2019-06-25T19:09:24.986Z,5.40
2019-06-25T19:11:53.518Z,5.30
2019-06-25T19:14:22.007Z,5.83
2019-06-25T19:16:50.463Z,5.20
2019-06-25T19:19:19.087Z,5.80
2019-06-25T19:21:47.584Z,5.43
2019-06-25T19:24:16.096Z,6.07
2019-06-25T19:26:44.630Z,5.30
2019-06-25T19:29:13.117Z,5.80
2019-06-25T19:31:41.597Z,5.40
2019-06-25T19:34:10.718Z,5.77
2019-06-25T19:36:39.281Z,5.50
2019-06-25T19:39:09.304Z,5.30
2019-06-25T19:41:37.832Z,5.90
2019-06-25T19:44:06.399Z,5.53
2019-06-25T19:46:34.937Z,5.60
2019-06-25T19:49:03.462Z,5.80
2019-06-25T19:51:31.943Z,6.03
2019-06-25T19:54:00.563Z,5.50
2019-06-25T19:56:29.118Z,5.90
2019-06-25T19:58:57.598Z,5.83
2019-06-25T20:01:26.085Z,5.87
2019-06-25T20:03:54.598Z,6.33
2019-06-25T20:06:23.212Z,5.63
2019-06-25T20:08:51.674Z,6.40
2019-06-25T20:11:20.197Z,6.17
2019-06-25T20:13:48.684Z,5.57
2019-06-25T20:16:17.168Z,6.23
2019-06-25T20:18:45.717Z,6.40
2019-06-25T20:21:14.212Z,5.87
2019-06-25T20:23:42.746Z,6.87
2019-06-25T20:26:11.256Z,6.60
2019-06-25T20:28:39.733Z,5.83
2019-06-25T20:31:08.227Z,6.07
2019-06-25T20:33:36.740Z,6.30
2019-06-25T20:36:06.279Z,7.47
2019-06-25T20:38:34.763Z,5.97
2019-06-25T20:41:03.267Z,7.00
2019-06-25T20:43:31.826Z,6.97
2019-06-25T20:46:00.305Z,6.57
2019-06-25T20:48:28.794Z,7.00
2019-06-25T20:50:57.269Z,6.70
2019-06-25T20:53:25.806Z,6.47
2019-06-25T20:55:54.364Z,6.20
2019-06-25T20:58:22.924Z,6.80
2019-06-25T21:00:51.458Z,6.77
2019-06-25T21:03:19.924Z,6.87
2019-06-25T21:05:48.391Z,6.43
2019-06-25T21:08:16.925Z,7.83
2019-06-25T21:10:45.402Z,7.90
2019-06-25T21:13:13.913Z,6.73
2019-06-25T21:15:42.805Z,6.70
2019-06-25T21:18:11.271Z,7.20
2019-06-25T21:20:39.752Z,7.50
2019-06-25T21:23:08.280Z,6.97
2019-06-25T21:25:36.791Z,8.37
2019-06-25T21:28:05.248Z,7.53
2019-06-25T21:30:33.793Z,8.17
2019-06-25T21:33:02.320Z,7.80
2019-06-25T21:35:30.831Z,7.30
2019-06-25T21:37:59.669Z,7.43
2019-06-25T21:40:28.157Z,7.43
2019-06-25T21:42:56.662Z,8.10
2019-06-25T21:45:25.175Z,8.83
2019-06-25T21:47:53.665Z,8.00
2019-06-25T21:50:22.675Z,7.97
2019-06-25T21:52:51.267Z,8.33
2019-06-25T21:55:19.833Z,7.43
2019-06-25T21:57:48.322Z,8.07
2019-06-25T22:00:18.861Z,8.00
2019-06-25T22:02:58.609Z,8.30
2019-06-25T22:05:27.211Z,9.00
2019-06-25T22:07:55.684Z,8.60
2019-06-25T22:10:24.908Z,8.30
2019-06-25T22:12:53.465Z,8.03
2019-06-25T22:15:22.442Z,8.87
2019-06-25T22:17:50.931Z,8.90
2019-06-25T22:20:19.597Z,9.00
2019-06-25T22:22:48.142Z,7.60
2019-06-25T22:25:16.697Z,8.60
2019-06-25T22:27:45.221Z,7.97
2019-06-25T22:30:15.544Z,9.40
2019-06-25T22:32:44.031Z,8.47
2019-06-25T22:35:12.632Z,8.80
2019-06-25T22:37:41.106Z,8.13
2019-06-25T22:40:10.386Z,9.10
2019-06-25T22:42:38.853Z,8.20
2019-06-25T22:45:07.929Z,9.57
2019-06-25T22:47:36.509Z,8.90
2019-06-25T22:50:07.516Z,8.93
2019-06-25T22:52:36.074Z,9.30
2019-06-25T22:55:05.934Z,9.73
2019-06-25T22:57:34.487Z,9.67
2019-06-25T23:00:03.019Z,9.97
2019-06-25T23:02:31.531Z,10.00
2019-06-25T23:05:00.027Z,9.93
2019-06-25T23:07:28.492Z,10.20
2019-06-25T23:09:57.003Z,9.33
2019-06-25T23:12:25.488Z,9.43
2019-06-25T23:14:54.043Z,9.70
2019-06-25T23:17:22.615Z,11.40
2019-06-25T23:19:51.099Z,9.60
2019-06-25T23:22:19.581Z,10.47
2019-06-25T23:24:48.187Z,10.17
2019-06-25T23:27:16.743Z,11.03
2019-06-25T23:29:45.238Z,10.37
2019-06-25T23:32:13.748Z,9.20
2019-06-25T23:34:42.259Z,11.27
2019-06-25T23:37:10.737Z,11.67
2019-06-25T23:39:39.326Z,10.87
2019-06-25T23:42:08.667Z,11.70
2019-06-25T23:44:37.156Z,10.63
2019-06-25T23:47:05.661Z,10.83
2019-06-25T23:49:34.146Z,11.00
2019-06-25T23:52:02.628Z,11.27
2019-06-25T23:54:31.164Z,10.30
2019-06-25T23:56:59.701Z,11.27
2019-06-25T23:59:28.211Z,11.63
